createdAt,value
2023-02-01T03:09:33.153Z,2.77
2023-02-01T03:14:33.137Z,3.22
2023-02-01T03:19:33.139Z,3.14
2023-02-01T04:19:33.165Z,4.77
2023-02-01T04:19:33.168Z,4.77
2023-02-01T04:24:33.150Z,5.38
2023-02-01T04:29:33.138Z,4.84
2023-02-01T04:34:33.170Z,5.07
2023-02-01T04:39:33.165Z,4.93
2023-02-01T04:44:33.180Z,5.76
2023-02-01T04:49:33.165Z,5.82
2023-02-01T04:54:33.170Z,5.86
2023-02-01T04:59:33.133Z,6.27
2023-02-01T05:04:33.146Z,6.47
2023-02-01T05:09:33.145Z,6.73
2023-02-01T05:14:33.189Z,7.26
2023-02-01T05:34:33.170Z,6.78
2023-02-01T05:39:33.173Z,7.35
2023-02-01T05:54:33.193Z,7
2023-02-01T05:59:33.201Z,6.64
2023-02-01T05:59:33.222Z,6.64
2023-02-01T10:29:33.516Z,12.55
2023-02-01T12:14:33.324Z,11.01
2023-02-01T12:34:33.332Z,11.91
2023-02-01T12:44:33.328Z,11.41
2023-02-01T12:54:33.340Z,11.08
2023-02-01T12:59:33.341Z,12.48
2023-02-01T13:09:33.347Z,11.04
2023-02-01T13:14:33.325Z,9.89
2023-02-01T13:19:33.347Z,10
2023-02-01T13:24:33.324Z,11.48
2023-02-01T13:29:33.327Z,10.93
2023-02-01T13:34:33.359Z,13.01
2023-02-01T13:39:33.361Z,14.48
2023-02-01T13:44:33.360Z,13.54
2023-02-01T13:49:33.328Z,10.76
2023-02-01T13:54:33.368Z,8.81
2023-02-01T13:59:33.329Z,9.09
2023-02-01T14:04:33.361Z,14.66
2023-02-01T14:09:33.330Z,11.09
2023-02-01T14:14:33.361Z,8.94
2023-02-01T14:19:33.345Z,8.05
2023-02-01T14:24:33.360Z,8.41
2023-02-01T14:29:33.373Z,9.35
2023-02-01T14:34:33.389Z,7.84
2023-02-01T14:39:33.375Z,9.11
2023-02-01T14:44:33.359Z,9.95
2023-02-01T14:49:33.344Z,8.47
2023-02-01T14:54:33.382Z,8.63
2023-02-01T14:59:33.351Z,9.92
2023-02-01T15:04:33.389Z,9.15
2023-02-01T15:09:33.359Z,9.25
2023-02-01T15:14:33.353Z,8.58
2023-02-01T15:19:33.384Z,11.85
2023-02-01T15:24:33.388Z,24.18
2023-02-01T15:29:33.419Z,14.13
2023-02-01T15:34:33.383Z,11.05
2023-02-01T15:39:33.683Z,9.74
2023-02-01T15:44:33.454Z,16.27
2023-02-01T15:49:33.399Z,13.28
2023-02-01T15:54:33.422Z,10.91
2023-02-01T15:59:33.368Z,20.27
2023-02-01T16:04:33.417Z,31.39
2023-02-01T16:09:33.374Z,41.5
2023-02-01T16:14:33.398Z,55.98
2023-02-01T16:29:33.383Z,18.33
2023-02-01T16:39:33.412Z,19.99
2023-02-01T16:44:33.401Z,19.14
2023-02-01T16:49:33.389Z,23.34
2023-02-01T16:54:33.424Z,16.73
2023-02-01T17:04:33.462Z,14.87
2023-02-01T17:09:33.387Z,17.88
2023-02-01T17:14:33.402Z,15.15
